Time;durP1;ratioP1;P1;durP2;ratioP2;P2;SDS_P1;SDS_P2;PMS_P1;PMS_P2;Temp;Humidity;BMP_temperature;BMP_pressure;BME280_temperature;BME280_humidity;BME280_pressure;Samples;Min_cycle;Max_cycle;Signal;HPM_P1;HPM_P2
2022/10/20 00:00:33;;;;;;;;;;;;;;;2.96;100.00;101334.63;3058040;19;19935;-51
2022/10/20 00:01:38;;;;;;;;;;;;;;;2.94;100.00;101346.97;3057034;19;19919;-52
2022/10/20 00:02:39;;;;;;;;;;;;;;;2.91;100.00;101349.63;3057900;19;19923;-53
2022/10/20 00:03:44;;;;;;;;;;;;;;;2.87;100.00;101346.22;3057387;19;19922;-51
2022/10/20 00:04:46;;;;;;;;;;;;;;;2.85;100.00;101347.13;3058019;19;19923;-52
2022/10/20 00:05:50;;;;;;;;;;;;;;;2.82;100.00;101347.16;3057569;19;19922;-53
2022/10/20 00:06:52;;;;;;;;;;;;;;;2.81;100.00;101342.78;3058177;19;19927;-51
2022/10/20 00:07:56;;;;;;;;;;;;;;;2.79;100.00;101349.84;3057242;19;19919;-53
2022/10/20 00:08:59;;;;;;;;;;;;;;;2.78;100.00;101345.47;3057889;19;20352;-52
2022/10/20 00:10:04;;;;;;;;;;;;;;;2.74;100.00;101339.38;3057667;19;19935;-53
2022/10/20 00:11:06;;;;;;;;;;;;;;;2.74;100.00;101351.69;3057911;19;19919;-51
2022/10/20 00:12:10;;;;;;;;;;;;;;;2.74;100.00;101343.78;3057206;19;20027;-51
2022/10/20 00:13:12;;;;;;;;;;;;;;;2.71;100.00;101338.56;3057434;19;19915;-53
2022/10/20 00:14:17;;;;;;;;;;;;;;;2.70;100.00;101344.72;3057431;19;19919;-50
2022/10/20 00:15:18;;;;;;;;;;;;;;;2.69;100.00;101348.25;3057715;19;20238;-52
2022/10/20 00:16:24;;;;;;;;;;;;;;;2.68;100.00;101351.78;3057481;19;19915;-54
2022/10/20 00:17:26;;;;;;;;;;;;;;;2.65;100.00;101339.53;3057782;19;19926;-51
2022/10/20 00:18:30;;;;;;;;;;;;;;;2.66;100.00;101345.66;3057276;19;19922;-53
2022/10/20 00:19:34;;;;;;;;;;;;;;;2.64;100.00;101342.19;3057639;19;19922;-52
2022/10/20 00:20:38;;;;;;;;;;;;;;;2.62;100.00;101338.72;3057460;19;20253;-53
2022/10/20 00:21:43;;;;;;;;;;;;;;;2.61;100.00;101342.22;3057203;19;19919;-52
2022/10/20 00:22:44;;;;;;;;;;;;;;;2.59;100.00;101344.00;3057622;19;20019;-54
2022/10/20 00:23:49;;;;;;;;;;;;;;;2.57;100.00;101343.16;3057316;19;19918;-50
2022/10/20 00:24:51;;;;;;;;;;;;;;;2.57;100.00;101343.16;3057383;19;19929;-51
2022/10/20 00:26:02;;;;;;;;;;;;;;;2.56;100.00;101342.28;3057434;19;20266;-52
2022/10/20 00:27:04;;;;;;;;;;;;;;;2.56;100.00;101339.66;3057238;19;19918;-54
2022/10/20 00:28:09;;;;;;;;;;;;;;;2.53;100.00;101337.09;3057518;19;19914;-55
2022/10/20 00:29:10;;;;;;;;;;;;;;;2.51;100.00;101331.84;3057497;19;19931;-51
2022/10/20 00:30:15;;;;;;;;;;;;;;;2.51;100.00;101342.38;3057244;19;19951;-54
2022/10/20 00:31:17;;;;;;;;;;;;;;;2.49;100.00;101340.66;3057423;19;19915;-52
2022/10/20 00:32:22;;;;;;;;;;;;;;;2.48;100.00;101339.78;3057452;19;19942;-53
2022/10/20 00:33:23;;;;;;;;;;;;;;;2.47;100.00;101338.03;3057080;19;19923;-51
2022/10/20 00:34:28;;;;;;;;;;;;;;;2.47;100.00;101338.03;3057447;19;19936;-54
2022/10/20 00:35:30;;;;;;;;;;;;;;;2.45;100.00;101334.56;3057438;19;19919;-55
2022/10/20 00:36:34;;;;;;;;;;;;;;;2.46;100.00;101343.31;3057454;19;19931;-54
2022/10/20 00:37:36;;;;;;;;;;;;;;;2.45;100.00;101336.31;3057247;19;20466;-53
2022/10/20 00:38:40;;;;;;;;;;;;;;;2.44;100.00;101342.47;3057758;19;19919;-49
2022/10/20 00:39:42;;;;;;;;;;;;;;;2.43;100.00;101338.97;3057180;19;19942;-53
2022/10/20 00:40:47;;;;;;;;;;;;;;;2.43;100.00;101343.38;3056764;19;20337;-52
2022/10/20 00:41:48;;;;;;;;;;;;;;;2.41;100.00;101338.16;3056019;19;19942;-54
2022/10/20 00:42:53;;;;;;;;;;;;;;;2.40;100.00;101344.31;3057125;19;20174;-51
2022/10/20 00:43:56;;;;;;;;;;;;;;;2.38;100.00;101335.56;3057356;19;19930;-53
2022/10/20 00:45:01;;;;;;;;;;;;;;;2.37;100.00;101339.06;3057445;19;20250;-52
2022/10/20 00:46:02;;;;;;;;;;;;;;;2.36;100.00;101347.88;3057274;19;19926;-53
2022/10/20 00:47:07;;;;;;;;;;;;;;;2.35;100.00;101340.84;3056106;19;20349;-51
2022/10/20 00:48:13;;;;;;;;;;;;;;;2.34;100.00;101344.38;3056365;19;20261;-52
2022/10/20 00:49:19;;;;;;;;;;;;;;;2.33;100.00;101347.91;3056360;19;19927;-53
2022/10/20 00:50:22;;;;;;;;;;;;;;;2.31;100.00;101339.13;3056775;19;19935;-51
2022/10/20 00:51:28;;;;;;;;;;;;;;;2.29;100.00;101338.31;3056198;19;20026;-54
2022/10/20 00:52:30;;;;;;;;;;;;;;;2.29;100.00;101346.22;3056402;19;20750;-54
2022/10/20 00:53:34;;;;;;;;;;;;;;;2.29;100.00;101340.09;3055758;19;19929;-51
2022/10/20 00:54:36;;;;;;;;;;;;;;;2.27;100.00;101350.63;3056478;19;19935;-53
2022/10/20 00:55:41;;;;;;;;;;;;;;;2.27;100.00;101341.88;3055636;19;19919;-50
2022/10/20 00:56:43;;;;;;;;;;;;;;;2.27;100.00;101348.00;3056519;19;19915;-54
2022/10/20 00:57:48;;;;;;;;;;;;;;;2.26;100.00;101351.53;3055901;19;19962;-51
2022/10/20 00:58:50;;;;;;;;;;;;;;;2.25;100.00;101346.28;3056412;19;20002;-56
2022/10/20 00:59:54;;;;;;;;;;;;;;;2.25;100.00;101343.63;3056056;19;19948;-53
2022/10/20 01:00:57;;;;;;;;;;;;;;;2.22;100.00;101336.66;3056379;19;19926;-52
2022/10/20 01:02:01;;;;;;;;;;;;;;;2.22;100.00;101343.66;3055915;19;19922;-52
2022/10/20 01:03:03;;;;;;;;;;;;;;;2.21;100.00;101342.81;3056341;19;19996;-53
2022/10/20 01:04:07;;;;;;;;;;;;;;;2.21;100.00;101341.94;3055803;19;20218;-51
2022/10/20 01:05:10;;;;;;;;;;;;;;;2.18;100.00;101335.81;3056248;19;20630;-49
2022/10/20 01:06:19;;;;;;;;;;;;;;;2.18;100.00;101342.84;3056562;19;19922;-54
2022/10/20 01:07:21;;;;;;;;;;;;;;;2.17;100.00;101335.84;3056378;19;20063;-52
2022/10/20 01:08:25;;;;;;;;;;;;;;;2.18;100.00;101337.56;3056074;19;19930;-52
2022/10/20 01:09:27;;;;;;;;;;;;;;;2.20;100.00;101337.56;3057147;19;19918;-49
2022/10/20 01:10:34;;;;;;;;;;;;;;;2.18;100.00;101341.06;3055383;19;20375;-50
2022/10/20 01:11:54;;;;;;;;;;;;;;;2.17;100.00;101335.84;3056165;19;19926;-54
2022/10/20 01:13:06;;;;;;;;;;;;;;;2.16;100.00;101340.25;3056483;19;19950;-52
2022/10/20 01:14:12;;;;;;;;;;;;;;;2.16;100.00;101340.25;3056620;19;20199;-52
2022/10/20 01:15:23;;;;;;;;;;;;;;;2.16;100.00;101349.91;3056122;19;19935;-54
2022/10/20 01:16:44;;;;;;;;;;;;;;;2.14;100.00;101349.06;3056018;19;19911;-50
2022/10/20 01:18:09;;;;;;;;;;;;;;;2.14;100.00;101351.69;3056400;19;20624;-52
2022/10/20 01:19:11;;;;;;;;;;;;;;;2.13;100.00;101347.31;3056872;19;19926;-51
2022/10/20 01:20:34;;;;;;;;;;;;;;;2.11;100.00;101349.97;3056826;19;19923;-52
2022/10/20 01:21:35;;;;;;;;;;;;;;;2.11;100.00;101354.34;3056932;19;20570;-52
2022/10/20 01:22:46;;;;;;;;;;;;;;;2.10;100.00;101349.97;3056931;19;19927;-50
2022/10/20 01:24:09;;;;;;;;;;;;;;;2.10;100.00;101357.88;3056807;19;20366;-51
2022/10/20 01:25:16;;;;;;;;;;;;;;;2.06;100.00;101343.00;3056466;19;19927;-52
2022/10/20 01:26:40;;;;;;;;;;;;;;;2.05;100.00;101343.91;3056923;19;19918;-54
2022/10/20 01:27:42;;;;;;;;;;;;;;;2.03;100.00;101343.06;3056597;19;20483;-53
2022/10/20 01:28:54;;;;;;;;;;;;;;;2.01;100.00;101339.56;3056145;19;20284;-52
2022/10/20 01:29:59;;;;;;;;;;;;;;;1.99;100.00;101343.97;3056187;19;20313;-53
2022/10/20 01:31:04;;;;;;;;;;;;;;;1.97;100.00;101344.00;3056859;19;19939;-54
2022/10/20 01:32:08;;;;;;;;;;;;;;;1.97;100.00;101343.13;3055701;19;20364;-52
2022/10/20 01:33:31;;;;;;;;;;;;;;;1.96;100.00;101346.66;3055380;19;19923;-50
2022/10/20 01:34:39;;;;;;;;;;;;;;;1.95;100.00;101344.91;3055662;19;19923;-52
2022/10/20 01:35:43;;;;;;;;;;;;;;;1.94;100.00;101337.88;3056500;19;19922;-52
2022/10/20 01:36:50;;;;;;;;;;;;;;;1.92;100.00;101342.31;3056023;19;20291;-52
2022/10/20 01:37:56;;;;;;;;;;;;;;;1.92;100.00;101344.97;3055646;19;19919;-53
2022/10/20 01:39:02;;;;;;;;;;;;;;;1.91;100.00;101338.81;3055588;19;20599;-51
2022/10/20 01:40:12;;;;;;;;;;;;;;;1.91;100.00;101343.22;3055614;19;20366;-54
2022/10/20 01:41:26;;;;;;;;;;;;;;;1.89;100.00;101351.13;3056061;19;19959;-54
2022/10/20 01:42:28;;;;;;;;;;;;;;;1.90;100.00;101352.00;3055843;19;19932;-52
2022/10/20 01:43:34;;;;;;;;;;;;;;;1.89;100.00;101350.25;3055503;19;19919;-52
2022/10/20 01:44:35;;;;;;;;;;;;;;;1.88;100.00;101352.00;3055787;19;19919;-52
2022/10/20 01:45:41;;;;;;;;;;;;;;;1.89;100.00;101350.25;3055362;19;19934;-51
2022/10/20 01:46:43;;;;;;;;;;;;;;;1.89;100.00;101355.53;3055856;19;19927;-55
2022/10/20 01:47:47;;;;;;;;;;;;;;;1.89;100.00;101345.00;3055255;19;19967;-50
2022/10/20 01:48:49;;;;;;;;;;;;;;;1.90;100.00;101349.38;3055855;19;19946;-51
2022/10/20 01:49:55;;;;;;;;;;;;;;;1.89;100.00;101345.88;3055137;19;19930;-51
2022/10/20 01:51:00;;;;;;;;;;;;;;;1.91;100.00;101348.47;3056022;19;19919;-53
2022/10/20 01:52:02;;;;;;;;;;;;;;;1.90;100.00;101337.09;3055643;19;19978;-50
2022/10/20 01:53:07;;;;;;;;;;;;;;;1.92;100.00;101345.84;3054937;19;19918;-50
2022/10/20 01:54:28;;;;;;;;;;;;;;;1.93;100.00;101346.72;3054471;19;19919;-52
2022/10/20 01:55:30;;;;;;;;;;;;;;;1.93;100.00;101341.44;3056559;19;20011;-53
2022/10/20 01:56:37;;;;;;;;;;;;;;;1.93;100.00;101344.94;3055405;19;19915;-52
2022/10/20 01:57:43;;;;;;;;;;;;;;;1.93;100.00;101341.44;3055746;19;19923;-52
2022/10/20 01:59:23;;;;;;;;;;;;;;;1.93;100.00;101341.44;3055413;19;19927;-54
2022/10/20 02:00:25;;;;;;;;;;;;;;;1.91;100.00;101332.69;3054420;19;20269;-53
2022/10/20 02:01:31;;;;;;;;;;;;;;;1.94;100.00;101335.25;3054512;19;20031;-51
2022/10/20 02:02:33;;;;;;;;;;;;;;;1.94;100.00;101343.16;3054727;19;19910;-54
2022/10/20 02:04:14;;;;;;;;;;;;;;;1.90;100.00;101338.84;3056496;19;19939;-51
2022/10/20 02:05:34;;;;;;;;;;;;;;;1.88;100.00;101338.84;3054545;19;19935;-53
2022/10/20 02:06:39;;;;;;;;;;;;;;;1.88;100.00;101332.72;3054590;19;19927;-53
2022/10/20 02:07:41;;;;;;;;;;;;;;;1.80;100.00;101322.31;3055373;19;20267;-53
2022/10/20 02:08:47;;;;;;;;;;;;;;;1.85;100.00;101340.66;3054550;19;20362;-52
2022/10/20 02:09:49;;;;;;;;;;;;;;;1.84;100.00;101336.25;3055545;19;19951;-49
2022/10/20 02:10:54;;;;;;;;;;;;;;;1.81;100.00;101340.66;3055077;19;19911;-55
2022/10/20 02:12:03;;;;;;;;;;;;;;;1.78;100.00;101337.22;3055772;19;19918;-53
2022/10/20 02:13:05;;;;;;;;;;;;;;;1.77;100.00;101339.00;3055257;19;19942;-52
2022/10/20 02:14:11;;;;;;;;;;;;;;;1.77;100.00;101336.34;3055265;19;19918;-55
2022/10/20 02:15:14;;;;;;;;;;;;;;;1.76;100.00;101333.75;3054429;19;19927;-52
2022/10/20 02:16:20;;;;;;;;;;;;;;;1.73;100.00;101334.63;3055051;19;19947;-52
2022/10/20 02:17:22;;;;;;;;;;;;;;;1.73;100.00;101334.63;3055410;19;20235;-53
2022/10/20 02:18:29;;;;;;;;;;;;;;;1.73;100.00;101333.78;3055130;19;20318;-54
2022/10/20 02:19:32;;;;;;;;;;;;;;;1.71;100.00;101333.78;3054994;19;19947;-51
2022/10/20 02:20:38;;;;;;;;;;;;;;;1.69;100.00;101327.66;3055041;19;19933;-55
2022/10/20 02:21:40;;;;;;;;;;;;;;;1.68;100.00;101336.47;3055281;19;19929;-50
2022/10/20 02:22:44;;;;;;;;;;;;;;;1.66;100.00;101325.09;3055476;19;19922;-51
2022/10/20 02:23:46;;;;;;;;;;;;;;;1.66;100.00;101327.72;3055824;19;20313;-53
2022/10/20 02:24:50;;;;;;;;;;;;;;;1.66;100.00;101332.97;3054764;19;20004;-55
2022/10/20 02:25:52;;;;;;;;;;;;;;;1.64;100.00;101324.22;3054715;19;20357;-55
2022/10/20 02:26:57;;;;;;;;;;;;;;;1.66;100.00;101334.75;3055283;19;20382;-54
2022/10/20 02:27:59;;;;;;;;;;;;;;;1.63;100.00;101330.38;3056290;19;19925;-50
2022/10/20 02:29:24;;;;;;;;;;;;;;;1.62;100.00;101331.28;3055163;19;19942;-52
2022/10/20 02:30:26;;;;;;;;;;;;;;;1.62;100.00;101331.28;3055258;19;19972;-57
2022/10/20 02:31:30;;;;;;;;;;;;;;;1.61;100.00;101334.78;3055066;19;19927;-53
2022/10/20 02:32:33;;;;;;;;;;;;;;;1.62;100.00;101331.28;3055341;19;20039;-52
2022/10/20 02:33:38;;;;;;;;;;;;;;;1.62;100.00;101326.00;3055047;19;19919;-52
2022/10/20 02:34:39;;;;;;;;;;;;;;;1.63;100.00;101333.00;3055191;19;20326;-54
2022/10/20 02:35:51;;;;;;;;;;;;;;;1.64;100.00;101332.13;3054972;19;19935;-55
2022/10/20 02:36:56;;;;;;;;;;;;;;;1.67;100.00;101334.72;3054177;19;20249;-51
2022/10/20 02:38:01;;;;;;;;;;;;;;;1.67;100.00;101329.47;3055864;19;19926;-50
2022/10/20 02:39:02;;;;;;;;;;;;;;;1.69;100.00;101326.81;3056105;19;19919;-51
2022/10/20 02:40:07;;;;;;;;;;;;;;;1.70;100.00;101328.53;3055499;19;20332;-52
2022/10/20 02:41:09;;;;;;;;;;;;;;;1.70;100.00;101333.78;3056028;19;19922;-50
2022/10/20 02:42:15;;;;;;;;;;;;;;;1.70;100.00;101331.16;3055553;19;19922;-51
2022/10/20 02:43:17;;;;;;;;;;;;;;;1.70;100.00;101339.94;3055894;19;20037;-58
2022/10/20 02:44:22;;;;;;;;;;;;;;;1.71;100.00;101335.53;3055318;19;19915;-55
2022/10/20 02:45:23;;;;;;;;;;;;;;;1.70;100.00;101337.31;3055478;19;19914;-52
2022/10/20 02:46:28;;;;;;;;;;;;;;;1.71;100.00;101340.81;3055467;19;19927;-54
2022/10/20 02:47:29;;;;;;;;;;;;;;;1.71;100.00;101336.41;3055816;19;19919;-53
2022/10/20 02:48:34;;;;;;;;;;;;;;;1.73;100.00;101339.91;3055574;19;19936;-53
2022/10/20 02:49:36;;;;;;;;;;;;;;;1.74;100.00;101335.50;3055954;19;19953;-53
2022/10/20 02:50:40;;;;;;;;;;;;;;;1.76;100.00;101339.00;3055524;19;19927;-52
2022/10/20 02:51:42;;;;;;;;;;;;;;;1.79;100.00;101333.72;3056045;19;19930;-53
2022/10/20 02:52:46;;;;;;;;;;;;;;;1.80;100.00;101338.97;3055641;19;19919;-54
2022/10/20 02:53:48;;;;;;;;;;;;;;;1.81;100.00;101332.78;3057037;19;19923;-51
2022/10/20 02:54:53;;;;;;;;;;;;;;;1.83;100.00;101334.53;3054141;19;19923;-54
2022/10/20 02:55:55;;;;;;;;;;;;;;;1.83;100.00;101330.13;3055125;19;19986;-53
2022/10/20 02:56:59;;;;;;;;;;;;;;;1.86;100.00;101329.22;3055931;19;19940;-51
2022/10/20 02:58:01;;;;;;;;;;;;;;;1.88;100.00;101327.44;3056093;19;19919;-55
2022/10/20 02:59:05;;;;;;;;;;;;;;;1.89;100.00;101329.19;3055552;19;19943;-54
2022/10/20 03:00:07;;;;;;;;;;;;;;;1.90;100.00;101334.44;3055748;19;20259;-51
2022/10/20 03:01:12;;;;;;;;;;;;;;;1.90;100.00;101326.56;3055561;19;20218;-54
2022/10/20 03:02:13;;;;;;;;;;;;;;;1.90;100.00;101325.69;3056159;19;19950;-52
2022/10/20 03:03:19;;;;;;;;;;;;;;;1.90;100.00;101330.94;3055593;19;19942;-51
2022/10/20 03:04:20;;;;;;;;;;;;;;;1.90;100.00;101330.94;3056148;19;19926;-52
2022/10/20 03:05:25;;;;;;;;;;;;;;;1.89;100.00;101337.97;3056987;19;19918;-52
2022/10/20 03:06:27;;;;;;;;;;;;;;;1.88;100.00;101332.72;3058569;19;19915;-51
2022/10/20 03:07:32;;;;;;;;;;;;;;;1.87;100.00;101328.34;3058817;19;19974;-54
2022/10/20 03:08:34;;;;;;;;;;;;;;;1.84;100.00;101325.75;3059049;19;19950;-49
2022/10/20 03:09:38;;;;;;;;;;;;;;;1.81;100.00;101332.78;3058346;19;20018;-49
2022/10/20 03:10:41;;;;;;;;;;;;;;;1.80;100.00;101336.34;3058908;19;19947;-52
2022/10/20 03:11:45;;;;;;;;;;;;;;;1.78;100.00;101332.84;3057409;19;19926;-53
2022/10/20 03:12:47;;;;;;;;;;;;;;;1.76;100.00;101331.97;3057933;19;19939;-53
2022/10/20 03:13:52;;;;;;;;;;;;;;;1.75;100.00;101332.88;3058080;19;20377;-55
2022/10/20 03:14:54;;;;;;;;;;;;;;;1.75;100.00;101332.00;3058605;19;19923;-51
2022/10/20 03:15:58;;;;;;;;;;;;;;;1.75;100.00;101332.88;3058460;19;19923;-50
2022/10/20 03:17:00;;;;;;;;;;;;;;;1.74;100.00;101336.38;3058713;19;19934;-50
2022/10/20 03:18:05;;;;;;;;;;;;;;;1.74;100.00;101331.13;3058285;19;19975;-53
2022/10/20 03:19:07;;;;;;;;;;;;;;;1.74;100.00;101336.38;3058703;19;19994;-51
2022/10/20 03:20:15;;;;;;;;;;;;;;;1.73;100.00;101337.28;3058660;19;19919;-54
2022/10/20 03:21:16;;;;;;;;;;;;;;;1.73;100.00;101339.03;3058748;19;19915;-52
2022/10/20 03:22:21;;;;;;;;;;;;;;;1.72;100.00;101332.91;3057994;19;19987;-54
2022/10/20 03:23:23;;;;;;;;;;;;;;;1.70;100.00;101337.31;3058664;19;19930;-54
2022/10/20 03:24:27;;;;;;;;;;;;;;;1.70;100.00;101345.19;3058618;19;19918;-54
2022/10/20 03:25:30;;;;;;;;;;;;;;;1.70;100.00;101350.47;3058383;19;19922;-54
2022/10/20 03:26:35;;;;;;;;;;;;;;;1.67;100.00;101344.38;3057399;19;19942;-53
2022/10/20 03:27:37;;;;;;;;;;;;;;;1.66;100.00;101348.78;3058474;19;19922;-52
2022/10/20 03:28:42;;;;;;;;;;;;;;;1.64;100.00;101345.28;3058204;19;20608;-54
2022/10/20 03:29:44;;;;;;;;;;;;;;;1.63;100.00;101347.94;3058205;19;19990;-55
2022/10/20 03:30:48;;;;;;;;;;;;;;;1.59;100.00;101341.81;3058315;19;19933;-53
2022/10/20 03:31:50;;;;;;;;;;;;;;;1.58;100.00;101339.19;3058299;19;20269;-51
2022/10/20 03:32:54;;;;;;;;;;;;;;;1.57;100.00;101342.75;3058938;19;20308;-51
2022/10/20 03:33:56;;;;;;;;;;;;;;;1.55;100.00;101337.50;3058097;19;20346;-54
2022/10/20 03:35:00;;;;;;;;;;;;;;;1.54;100.00;101346.28;3057937;19;20338;-52
2022/10/20 03:36:02;;;;;;;;;;;;;;;1.53;100.00;101341.91;3058315;19;20007;-51
2022/10/20 03:37:07;;;;;;;;;;;;;;;1.53;100.00;101343.66;3056394;19;20031;-52
2022/10/20 03:38:08;;;;;;;;;;;;;;;1.52;100.00;101350.69;3057453;19;19980;-53
2022/10/20 03:39:13;;;;;;;;;;;;;;;1.51;100.00;101348.94;3058458;19;19915;-54
2022/10/20 03:40:14;;;;;;;;;;;;;;;1.49;100.00;101345.44;3058198;19;19929;-54
2022/10/20 03:41:19;;;;;;;;;;;;;;;1.49;100.00;101340.19;3058172;19;20586;-54
2022/10/20 03:42:21;;;;;;;;;;;;;;;1.48;100.00;101354.22;3058158;19;19929;-55
2022/10/20 03:43:25;;;;;;;;;;;;;;;1.48;100.00;101356.84;3057355;19;19923;-52
2022/10/20 03:44:27;;;;;;;;;;;;;;;1.49;100.00;101355.97;3059543;19;19919;-51
2022/10/20 03:45:31;;;;;;;;;;;;;;;1.51;100.00;101353.31;3058518;19;19923;-56
2022/10/20 03:46:33;;;;;;;;;;;;;;;1.53;100.00;101357.69;3057042;19;19933;-52
2022/10/20 03:47:37;;;;;;;;;;;;;;;1.54;100.00;101359.44;3057788;19;20276;-51
2022/10/20 03:48:39;;;;;;;;;;;;;;;1.55;100.00;101358.53;3058087;19;19938;-51
2022/10/20 03:49:44;;;;;;;;;;;;;;;1.57;100.00;101363.78;3057593;19;20360;-52
2022/10/20 03:50:45;;;;;;;;;;;;;;;1.57;100.00;101358.53;3058122;19;20463;-52
2022/10/20 03:51:50;;;;;;;;;;;;;;;1.58;100.00;101366.38;3058280;19;20035;-49
2022/10/20 03:52:52;;;;;;;;;;;;;;;1.60;100.00;101348.81;3057989;19;19915;-51
2022/10/20 03:53:56;;;;;;;;;;;;;;;1.60;100.00;101347.94;3057848;19;19926;-54
2022/10/20 03:54:58;;;;;;;;;;;;;;;1.61;100.00;101354.97;3057978;19;19926;-52
2022/10/20 03:56:09;;;;;;;;;;;;;;;1.61;100.00;101355.84;3057870;19;19915;-53
2022/10/20 03:57:11;;;;;;;;;;;;;;;1.61;100.00;101361.09;3058093;19;19919;-53
2022/10/20 03:58:16;;;;;;;;;;;;;;;1.60;100.00;101364.59;3058821;19;19922;-52
2022/10/20 03:59:17;;;;;;;;;;;;;;;1.60;100.00;101363.75;3057355;19;19919;-52
2022/10/20 04:00:22;;;;;;;;;;;;;;;1.59;100.00;101362.88;3056969;19;19930;-52
2022/10/20 04:01:26;;;;;;;;;;;;;;;1.58;100.00;101361.13;3056948;19;19926;-50
2022/10/20 04:02:41;;;;;;;;;;;;;;;1.57;100.00;101358.53;3057063;19;19957;-55
2022/10/20 04:03:43;;;;;;;;;;;;;;;1.56;100.00;101362.91;3056905;19;19919;-54
2022/10/20 04:04:48;;;;;;;;;;;;;;;1.55;100.00;101363.81;3057359;19;19939;-53
2022/10/20 04:05:49;;;;;;;;;;;;;;;1.54;100.00;101364.69;3056784;19;19936;-49
2022/10/20 04:06:54;;;;;;;;;;;;;;;1.53;100.00;101368.22;3056060;19;19923;-52
2022/10/20 04:07:58;;;;;;;;;;;;;;;1.53;100.00;101368.22;3057870;19;20253;-55
2022/10/20 04:09:00;;;;;;;;;;;;;;;1.51;100.00;101380.50;3058063;19;19923;-52
2022/10/20 04:10:05;;;;;;;;;;;;;;;1.49;100.00;101369.13;3057626;19;19941;-52
2022/10/20 04:11:06;;;;;;;;;;;;;;;1.48;100.00;101377.88;3058114;19;19943;-52
2022/10/20 04:12:11;;;;;;;;;;;;;;;1.48;100.00;101377.88;3055655;19;19930;-51
2022/10/20 04:13:12;;;;;;;;;;;;;;;1.46;100.00;101382.28;3057774;19;19933;-54
2022/10/20 04:14:17;;;;;;;;;;;;;;;1.46;100.00;101374.41;3057888;19;19931;-50
2022/10/20 04:15:19;;;;;;;;;;;;;;;1.44;100.00;101368.31;3057747;19;19923;-53
2022/10/20 04:16:23;;;;;;;;;;;;;;;1.44;100.00;101377.06;3055934;19;19923;-51
2022/10/20 04:17:25;;;;;;;;;;;;;;;1.43;100.00;101366.56;3056608;19;19923;-50
2022/10/20 04:18:29;;;;;;;;;;;;;;;1.42;100.00;101376.22;3055567;19;19936;-48
2022/10/20 04:19:35;;;;;;;;;;;;;;;1.41;100.00;101373.59;3056932;19;20002;-50
2022/10/20 04:20:39;;;;;;;;;;;;;;;1.39;100.00;101373.59;3057049;19;19934;-53
2022/10/20 04:21:45;;;;;;;;;;;;;;;1.38;100.00;101373.63;3056291;19;19915;-53
2022/10/20 04:22:50;;;;;;;;;;;;;;;1.38;100.00;101378.88;3058174;19;19936;-52
2022/10/20 04:23:52;;;;;;;;;;;;;;;1.37;100.00;101372.75;3056812;19;19927;-53
2022/10/20 04:24:56;;;;;;;;;;;;;;;1.36;100.00;101372.75;3056774;19;19926;-51
2022/10/20 04:25:58;;;;;;;;;;;;;;;1.35;100.00;101368.38;3057348;19;19933;-53
2022/10/20 04:27:02;;;;;;;;;;;;;;;1.35;100.00;101373.63;3055925;19;20000;-52
2022/10/20 04:28:04;;;;;;;;;;;;;;;1.33;100.00;101380.66;3055344;19;19933;-52
2022/10/20 04:29:08;;;;;;;;;;;;;;;1.32;100.00;101371.06;3055192;19;20412;-53
2022/10/20 04:30:10;;;;;;;;;;;;;;;1.30;100.00;101375.47;3055300;19;19950;-52
2022/10/20 04:31:14;;;;;;;;;;;;;;;1.28;100.00;101372.84;3057375;19;19923;-48
2022/10/20 04:32:16;;;;;;;;;;;;;;;1.27;100.00;101371.09;3056831;19;20236;-51
2022/10/20 04:33:21;;;;;;;;;;;;;;;1.25;100.00;101371.97;3057122;19;20548;-55
2022/10/20 04:34:25;;;;;;;;;;;;;;;1.24;100.00;101375.50;3057396;19;19942;-54
2022/10/20 04:35:27;;;;;;;;;;;;;;;1.22;100.00;101382.53;3057083;19;20432;-55
2022/10/20 04:36:31;;;;;;;;;;;;;;;1.20;100.00;101381.69;3056687;19;20250;-54
2022/10/20 04:37:33;;;;;;;;;;;;;;;1.18;100.00;101383.44;3057361;19;19914;-53
2022/10/20 04:38:38;;;;;;;;;;;;;;;1.15;100.00;101379.09;3057169;19;20389;-53
2022/10/20 04:39:40;;;;;;;;;;;;;;;1.15;100.00;101383.47;3056656;19;20455;-52
2022/10/20 04:40:44;;;;;;;;;;;;;;;1.14;100.00;101385.22;3056182;19;20293;-50
2022/10/20 04:41:46;;;;;;;;;;;;;;;1.14;100.00;101384.34;3057472;19;19926;-48
2022/10/20 04:42:50;;;;;;;;;;;;;;;1.14;100.00;101384.34;3056907;19;19942;-52
2022/10/20 04:43:52;;;;;;;;;;;;;;;1.14;100.00;101384.34;3057397;19;20264;-52
2022/10/20 04:44:56;;;;;;;;;;;;;;;1.16;100.00;101385.22;3056859;19;20046;-52
2022/10/20 04:46:21;;;;;;;;;;;;;;;1.17;100.00;101379.94;3057440;19;19918;-51
2022/10/20 04:47:22;;;;;;;;;;;;;;;1.20;100.00;101384.31;3056319;19;19938;-53
2022/10/20 04:48:27;;;;;;;;;;;;;;;1.22;100.00;101387.78;3056877;19;19923;-52
2022/10/20 04:49:28;;;;;;;;;;;;;;;1.23;100.00;101389.53;3057018;19;20342;-51
2022/10/20 04:50:33;;;;;;;;;;;;;;;1.27;100.00;101380.72;3057057;19;20333;-54
2022/10/20 04:51:41;;;;;;;;;;;;;;;1.29;100.00;101385.09;3056992;19;20455;-55
2022/10/20 04:52:45;;;;;;;;;;;;;;;1.32;100.00;101384.22;3057061;19;19930;-54
2022/10/20 04:53:47;;;;;;;;;;;;;;;1.35;100.00;101381.53;3057234;19;19922;-50
2022/10/20 04:54:51;;;;;;;;;;;;;;;1.37;100.00;101388.53;3057244;19;20321;-50
2022/10/20 04:55:54;;;;;;;;;;;;;;;1.40;100.00;101383.25;3056305;19;19914;-52
2022/10/20 04:56:58;;;;;;;;;;;;;;;1.44;100.00;101390.22;3056320;19;19966;-51
2022/10/20 04:58:00;;;;;;;;;;;;;;;1.47;100.00;101389.28;3057249;19;20423;-55
2022/10/20 04:59:04;;;;;;;;;;;;;;;1.49;100.00;101384.91;3057020;19;20038;-49
2022/10/20 05:00:16;;;;;;;;;;;;;;;1.53;100.00;101384.00;3056935;19;19919;-49
2022/10/20 05:01:18;;;;;;;;;;;;;;;1.55;100.00;101390.09;3059021;19;19922;-52
2022/10/20 05:02:23;;;;;;;;;;;;;;;1.57;100.00;101385.69;3057058;19;19919;-51
2022/10/20 05:03:25;;;;;;;;;;;;;;;1.59;100.00;101389.16;3057238;19;19936;-50
2022/10/20 05:04:29;;;;;;;;;;;;;;;1.60;100.00;101383.03;3056918;19;19926;-50
2022/10/20 05:05:31;;;;;;;;;;;;;;;1.62;100.00;101389.16;3057468;19;19923;-53
2022/10/20 05:06:35;;;;;;;;;;;;;;;1.63;100.00;101385.63;3057400;19;19919;-55
2022/10/20 05:07:37;;;;;;;;;;;;;;;1.67;100.00;101391.75;3056336;19;20363;-55
2022/10/20 05:08:43;;;;;;;;;;;;;;;1.67;100.00;101392.63;3058579;19;20381;-50
2022/10/20 05:09:45;;;;;;;;;;;;;;;1.70;100.00;101395.19;3058150;19;19918;-53
2022/10/20 05:10:49;;;;;;;;;;;;;;;1.74;100.00;101394.28;3057063;19;19926;-53
2022/10/20 05:11:52;;;;;;;;;;;;;;;1.76;100.00;101391.63;3057304;19;20441;-52
2022/10/20 05:12:56;;;;;;;;;;;;;;;1.77;100.00;101391.63;3057009;19;19922;-50
2022/10/20 05:13:58;;;;;;;;;;;;;;;1.81;100.00;101389.84;3058241;19;19929;-51
2022/10/20 05:15:02;;;;;;;;;;;;;;;1.83;100.00;101387.16;3057514;19;19922;-53
2022/10/20 05:16:04;;;;;;;;;;;;;;;1.86;100.00;101387.13;3056838;19;20323;-52
2022/10/20 05:17:09;;;;;;;;;;;;;;;1.89;100.00;101392.38;3056204;19;19923;-53
2022/10/20 05:18:11;;;;;;;;;;;;;;;1.92;100.00;101387.06;3057926;19;19946;-54
2022/10/20 05:19:15;;;;;;;;;;;;;;;1.94;100.00;101380.00;3057598;19;19923;-53
2022/10/20 05:20:17;;;;;;;;;;;;;;;1.97;100.00;101385.25;3057035;19;19922;-53
2022/10/20 05:21:23;;;;;;;;;;;;;;;1.99;100.00;101381.69;3058260;19;19941;-51
2022/10/20 05:22:25;;;;;;;;;;;;;;;2.02;100.00;101383.44;3058343;19;19974;-52
2022/10/20 05:23:29;;;;;;;;;;;;;;;2.05;100.00;101386.03;3058536;19;19915;-55
2022/10/20 05:24:34;;;;;;;;;;;;;;;2.08;100.00;101388.59;3019022;19;19950;-53
2022/10/20 05:25:36;;;;;;;;;;;;;;;2.11;100.00;101389.44;3057295;19;19922;-53
2022/10/20 05:26:40;;;;;;;;;;;;;;;2.14;100.00;101388.56;3057695;19;19922;-52
2022/10/20 05:27:42;;;;;;;;;;;;;;;2.16;100.00;101390.28;3057904;19;19927;-50
2022/10/20 05:28:48;;;;;;;;;;;;;;;2.20;100.00;101391.09;3057731;19;19943;-52
2022/10/20 05:29:50;;;;;;;;;;;;;;;2.24;100.00;101384.91;3056605;19;20484;-51
2022/10/20 05:30:55;;;;;;;;;;;;;;;2.27;100.00;101387.50;3056060;19;20335;-49
2022/10/20 05:32:02;;;;;;;;;;;;;;;2.31;100.00;101389.19;3056845;19;20254;-51